KBIS

Bismarck Municipal Airport

Bismarck, North Dakota, USA
METAR KBIS 201152Z 23005KT 10SM CLR M03/M04 A2996 RMK AO2 SLP176 T10331044 11028 21094 56026
Observed Flight Rules
Nov-20 @ 11:52 UTC (23 minutes ago) Visual Flight Rules
Wind Visibility Clouds
230° at 5 knots 10 miles
  • Clear skies
Temperatures Readings
Current -3°C / 27°F
Dewpoint -4°C / 25°F
Humidity 93%
Altimeter 29.96" Hg
Pressure 1017.6 hPa
Elevation 505
METAR KBIS 201152Z 23005KT 10SM CLR M03/M04 A2996 RMK AO2 SLP176 T10331044 11028 21094 56026
Observed Flight Rules
Nov-20 @ 11:52 UTC
(23 minutes ago)
VFR
Wind Visibility
230° at 5 knots 10 miles
Clouds
  • Clear skies
Temperature Dewpoint
-3°C / 27°F -4°C / 25°F
Humidity Altimeter Pressure
93% 29.96" Hg 1017.6 hPa